sensor_id;sensor_type;location;lat;lon;timestamp;P1;durP1;ratioP1;P2;durP2;ratioP2
25191;SDS011;13143;50.924;5.320;2022-10-15T00:00:36;19.25;;;14.80;;
25191;SDS011;13143;50.924;5.320;2022-10-15T00:03:02;22.50;;;13.73;;
25191;SDS011;13143;50.924;5.320;2022-10-15T00:05:27;15.98;;;13.63;;
25191;SDS011;13143;50.924;5.320;2022-10-15T00:07:53;15.45;;;13.13;;
25191;SDS011;13143;50.924;5.320;2022-10-15T00:10:19;19.73;;;14.85;;
25191;SDS011;13143;50.924;5.320;2022-10-15T00:12:45;18.80;;;16.50;;
25191;SDS011;13143;50.924;5.320;2022-10-15T00:15:11;20.77;;;15.60;;
25191;SDS011;13143;50.924;5.320;2022-10-15T00:17:37;17.92;;;15.52;;
25191;SDS011;13143;50.924;5.320;2022-10-15T00:20:04;18.30;;;15.40;;
25191;SDS011;13143;50.924;5.320;2022-10-15T00:22:31;19.58;;;16.70;;
25191;SDS011;13143;50.924;5.320;2022-10-15T00:24:56;21.50;;;16.33;;
25191;SDS011;13143;50.924;5.320;2022-10-15T00:27:22;18.83;;;15.63;;
25191;SDS011;13143;50.924;5.320;2022-10-15T00:29:48;19.25;;;15.98;;
25191;SDS011;13143;50.924;5.320;2022-10-15T00:32:14;19.90;;;17.30;;
25191;SDS011;13143;50.924;5.320;2022-10-15T00:34:39;19.23;;;15.88;;
25191;SDS011;13143;50.924;5.320;2022-10-15T00:37:05;20.23;;;16.77;;
25191;SDS011;13143;50.924;5.320;2022-10-15T00:39:32;21.45;;;16.70;;
25191;SDS011;13143;50.924;5.320;2022-10-15T00:41:58;20.88;;;15.80;;
25191;SDS011;13143;50.924;5.320;2022-10-15T00:46:56;24.45;;;17.67;;
25191;SDS011;13143;50.924;5.320;2022-10-15T00:49:27;27.67;;;17.00;;
25191;SDS011;13143;50.924;5.320;2022-10-15T00:54:46;20.17;;;17.15;;
25191;SDS011;13143;50.924;5.320;2022-10-15T00:57:15;22.40;;;17.25;;
25191;SDS011;13143;50.924;5.320;2022-10-15T00:59:46;23.17;;;18.13;;
25191;SDS011;13143;50.924;5.320;2022-10-15T01:02:17;22.80;;;18.13;;
25191;SDS011;13143;50.924;5.320;2022-10-15T01:04:44;22.73;;;18.85;;
25191;SDS011;13143;50.924;5.320;2022-10-15T01:07:10;24.98;;;20.02;;
25191;SDS011;13143;50.924;5.320;2022-10-15T01:09:36;24.13;;;19.80;;
25191;SDS011;13143;50.924;5.320;2022-10-15T01:12:02;25.98;;;19.02;;
25191;SDS011;13143;50.924;5.320;2022-10-15T01:14:38;25.40;;;19.00;;
25191;SDS011;13143;50.924;5.320;2022-10-15T01:17:19;25.58;;;20.85;;
25191;SDS011;13143;50.924;5.320;2022-10-15T01:20:18;27.98;;;21.42;;
25191;SDS011;13143;50.924;5.320;2022-10-15T01:31:20;27.85;;;20.90;;
25191;SDS011;13143;50.924;5.320;2022-10-15T01:36:15;26.08;;;21.38;;
25191;SDS011;13143;50.924;5.320;2022-10-15T01:38:47;28.85;;;21.95;;
25191;SDS011;13143;50.924;5.320;2022-10-15T01:44:22;28.58;;;22.67;;
25191;SDS011;13143;50.924;5.320;2022-10-15T01:47:01;28.90;;;22.58;;
25191;SDS011;13143;50.924;5.320;2022-10-15T01:49:30;29.67;;;22.38;;
25191;SDS011;13143;50.924;5.320;2022-10-15T01:52:02;28.58;;;22.13;;
25191;SDS011;13143;50.924;5.320;2022-10-15T01:54:32;29.10;;;22.37;;
25191;SDS011;13143;50.924;5.320;2022-10-15T01:56:58;29.02;;;23.17;;
25191;SDS011;13143;50.924;5.320;2022-10-15T01:59:25;28.67;;;21.90;;
25191;SDS011;13143;50.924;5.320;2022-10-15T02:01:53;26.65;;;22.55;;
25191;SDS011;13143;50.924;5.320;2022-10-15T02:04:27;31.20;;;22.90;;
25191;SDS011;13143;50.924;5.320;2022-10-15T02:06:58;33.10;;;22.95;;
25191;SDS011;13143;50.924;5.320;2022-10-15T02:12:29;30.42;;;22.70;;
25191;SDS011;13143;50.924;5.320;2022-10-15T02:17:37;30.52;;;22.85;;
25191;SDS011;13143;50.924;5.320;2022-10-15T02:20:55;31.25;;;22.30;;
25191;SDS011;13143;50.924;5.320;2022-10-15T02:23:21;28.20;;;22.10;;
25191;SDS011;13143;50.924;5.320;2022-10-15T02:25:56;28.33;;;22.23;;
25191;SDS011;13143;50.924;5.320;2022-10-15T02:28:23;32.65;;;22.33;;
25191;SDS011;13143;50.924;5.320;2022-10-15T02:30:51;29.33;;;22.60;;
25191;SDS011;13143;50.924;5.320;2022-10-15T02:33:20;31.50;;;22.77;;
25191;SDS011;13143;50.924;5.320;2022-10-15T02:35:47;27.45;;;22.13;;
25191;SDS011;13143;50.924;5.320;2022-10-15T02:38:15;28.17;;;21.23;;
25191;SDS011;13143;50.924;5.320;2022-10-15T02:40:43;27.67;;;21.70;;
25191;SDS011;13143;50.924;5.320;2022-10-15T02:43:12;27.92;;;19.85;;
25191;SDS011;13143;50.924;5.320;2022-10-15T02:45:39;24.90;;;19.65;;
25191;SDS011;13143;50.924;5.320;2022-10-15T02:48:06;25.75;;;19.55;;
25191;SDS011;13143;50.924;5.320;2022-10-15T02:50:32;25.50;;;20.42;;
25191;SDS011;13143;50.924;5.320;2022-10-15T02:52:57;24.23;;;19.33;;
25191;SDS011;13143;50.924;5.320;2022-10-15T02:55:24;29.88;;;19.17;;
25191;SDS011;13143;50.924;5.320;2022-10-15T02:57:50;26.38;;;19.08;;
25191;SDS011;13143;50.924;5.320;2022-10-15T03:00:16;23.75;;;18.98;;
25191;SDS011;13143;50.924;5.320;2022-10-15T03:02:42;24.25;;;19.63;;
25191;SDS011;13143;50.924;5.320;2022-10-15T03:05:08;23.40;;;19.48;;
25191;SDS011;13143;50.924;5.320;2022-10-15T03:07:34;27.77;;;19.35;;
25191;SDS011;13143;50.924;5.320;2022-10-15T03:10:00;24.38;;;19.35;;
25191;SDS011;13143;50.924;5.320;2022-10-15T03:12:25;24.95;;;18.85;;
25191;SDS011;13143;50.924;5.320;2022-10-15T03:14:51;24.88;;;19.90;;
25191;SDS011;13143;50.924;5.320;2022-10-15T03:17:17;26.23;;;19.63;;
25191;SDS011;13143;50.924;5.320;2022-10-15T03:19:43;31.23;;;19.92;;
25191;SDS011;13143;50.924;5.320;2022-10-15T03:22:09;30.20;;;19.90;;
25191;SDS011;13143;50.924;5.320;2022-10-15T03:24:35;32.47;;;20.50;;
25191;SDS011;13143;50.924;5.320;2022-10-15T03:27:00;27.38;;;19.17;;
25191;SDS011;13143;50.924;5.320;2022-10-15T03:29:26;31.55;;;20.40;;
25191;SDS011;13143;50.924;5.320;2022-10-15T03:31:52;31.20;;;20.80;;
25191;SDS011;13143;50.924;5.320;2022-10-15T03:34:17;28.17;;;20.60;;
25191;SDS011;13143;50.924;5.320;2022-10-15T03:36:43;28.73;;;20.08;;
25191;SDS011;13143;50.924;5.320;2022-10-15T03:39:09;35.90;;;21.70;;
25191;SDS011;13143;50.924;5.320;2022-10-15T03:41:36;30.70;;;21.65;;
25191;SDS011;13143;50.924;5.320;2022-10-15T03:44:03;31.83;;;21.83;;
25191;SDS011;13143;50.924;5.320;2022-10-15T03:46:29;32.65;;;21.85;;
25191;SDS011;13143;50.924;5.320;2022-10-15T03:48:55;34.92;;;22.42;;
25191;SDS011;13143;50.924;5.320;2022-10-15T03:51:21;35.90;;;23.60;;
25191;SDS011;13143;50.924;5.320;2022-10-15T03:53:46;33.47;;;23.23;;
25191;SDS011;13143;50.924;5.320;2022-10-15T03:56:12;47.67;;;24.13;;
25191;SDS011;13143;50.924;5.320;2022-10-15T03:58:38;34.30;;;23.40;;
25191;SDS011;13143;50.924;5.320;2022-10-15T04:01:08;34.67;;;23.10;;
25191;SDS011;13143;50.924;5.320;2022-10-15T04:03:34;39.33;;;24.20;;
25191;SDS011;13143;50.924;5.320;2022-10-15T04:06:00;36.55;;;23.77;;
25191;SDS011;13143;50.924;5.320;2022-10-15T04:08:26;36.20;;;23.73;;
25191;SDS011;13143;50.924;5.320;2022-10-15T04:10:51;38.25;;;24.60;;
25191;SDS011;13143;50.924;5.320;2022-10-15T04:13:17;37.13;;;24.67;;
25191;SDS011;13143;50.924;5.320;2022-10-15T04:15:42;38.00;;;25.13;;
25191;SDS011;13143;50.924;5.320;2022-10-15T04:18:08;40.35;;;24.27;;
25191;SDS011;13143;50.924;5.320;2022-10-15T04:20:34;40.53;;;25.33;;
25191;SDS011;13143;50.924;5.320;2022-10-15T04:22:59;38.88;;;25.02;;
25191;SDS011;13143;50.924;5.320;2022-10-15T04:25:25;40.20;;;25.88;;
25191;SDS011;13143;50.924;5.320;2022-10-15T04:27:51;41.03;;;26.08;;
25191;SDS011;13143;50.924;5.320;2022-10-15T04:30:17;39.83;;;25.73;;
25191;SDS011;13143;50.924;5.320;2022-10-15T04:32:43;44.72;;;26.25;;
25191;SDS011;13143;50.924;5.320;2022-10-15T04:35:09;40.38;;;26.98;;
25191;SDS011;13143;50.924;5.320;2022-10-15T04:37:35;39.78;;;25.23;;
25191;SDS011;13143;50.924;5.320;2022-10-15T04:40:01;42.80;;;26.00;;
25191;SDS011;13143;50.924;5.320;2022-10-15T04:42:29;39.72;;;25.65;;
25191;SDS011;13143;50.924;5.320;2022-10-15T04:44:55;41.97;;;27.30;;
25191;SDS011;13143;50.924;5.320;2022-10-15T04:47:21;39.55;;;25.70;;
25191;SDS011;13143;50.924;5.320;2022-10-15T04:49:47;37.28;;;24.85;;
25191;SDS011;13143;50.924;5.320;2022-10-15T04:52:12;45.88;;;26.02;;
25191;SDS011;13143;50.924;5.320;2022-10-15T04:54:39;44.33;;;27.02;;
25191;SDS011;13143;50.924;5.320;2022-10-15T04:57:04;39.17;;;26.10;;
25191;SDS011;13143;50.924;5.320;2022-10-15T04:59:30;40.83;;;25.55;;
25191;SDS011;13143;50.924;5.320;2022-10-15T05:01:56;41.30;;;25.45;;
25191;SDS011;13143;50.924;5.320;2022-10-15T05:04:22;42.70;;;25.45;;
25191;SDS011;13143;50.924;5.320;2022-10-15T05:06:48;42.17;;;25.42;;
25191;SDS011;13143;50.924;5.320;2022-10-15T05:09:13;34.25;;;24.25;;
25191;SDS011;13143;50.924;5.320;2022-10-15T05:11:39;37.10;;;25.05;;
25191;SDS011;13143;50.924;5.320;2022-10-15T05:14:05;33.85;;;22.58;;
25191;SDS011;13143;50.924;5.320;2022-10-15T05:16:31;30.42;;;22.58;;
25191;SDS011;13143;50.924;5.320;2022-10-15T05:18:59;31.60;;;21.30;;
25191;SDS011;13143;50.924;5.320;2022-10-15T05:21:26;34.03;;;22.30;;
25191;SDS011;13143;50.924;5.320;2022-10-15T05:23:52;32.72;;;21.55;;
25191;SDS011;13143;50.924;5.320;2022-10-15T05:26:19;34.67;;;22.88;;
25191;SDS011;13143;50.924;5.320;2022-10-15T05:28:46;32.70;;;21.85;;
25191;SDS011;13143;50.924;5.320;2022-10-15T05:31:14;35.92;;;23.00;;
25191;SDS011;13143;50.924;5.320;2022-10-15T05:33:41;35.17;;;22.60;;
25191;SDS011;13143;50.924;5.320;2022-10-15T05:36:16;34.50;;;23.25;;
25191;SDS011;13143;50.924;5.320;2022-10-15T05:38:46;40.55;;;24.35;;
25191;SDS011;13143;50.924;5.320;2022-10-15T05:41:13;39.80;;;24.52;;
25191;SDS011;13143;50.924;5.320;2022-10-15T05:43:39;37.40;;;23.27;;
25191;SDS011;13143;50.924;5.320;2022-10-15T05:46:05;35.45;;;22.52;;
25191;SDS011;13143;50.924;5.320;2022-10-15T05:48:31;34.15;;;23.10;;
25191;SDS011;13143;50.924;5.320;2022-10-15T05:51:00;32.53;;;20.35;;
25191;SDS011;13143;50.924;5.320;2022-10-15T05:53:30;29.42;;;18.52;;
25191;SDS011;13143;50.924;5.320;2022-10-15T05:55:56;26.20;;;16.10;;
25191;SDS011;13143;50.924;5.320;2022-10-15T05:58:25;26.40;;;16.55;;
25191;SDS011;13143;50.924;5.320;2022-10-15T06:00:56;22.75;;;15.15;;
25191;SDS011;13143;50.924;5.320;2022-10-15T06:03:22;25.95;;;15.05;;
25191;SDS011;13143;50.924;5.320;2022-10-15T06:05:48;20.08;;;13.05;;
25191;SDS011;13143;50.924;5.320;2022-10-15T06:08:14;21.40;;;12.35;;
25191;SDS011;13143;50.924;5.320;2022-10-15T06:10:40;17.38;;;11.82;;
25191;SDS011;13143;50.924;5.320;2022-10-15T06:13:06;19.73;;;10.90;;
25191;SDS011;13143;50.924;5.320;2022-10-15T06:15:32;18.98;;;11.05;;
25191;SDS011;13143;50.924;5.320;2022-10-15T06:17:58;18.23;;;11.77;;
25191;SDS011;13143;50.924;5.320;2022-10-15T06:20:25;16.65;;;11.82;;
25191;SDS011;13143;50.924;5.320;2022-10-15T06:22:55;17.05;;;11.65;;
25191;SDS011;13143;50.924;5.320;2022-10-15T06:25:22;19.42;;;11.52;;
25191;SDS011;13143;50.924;5.320;2022-10-15T06:27:48;20.65;;;11.63;;
25191;SDS011;13143;50.924;5.320;2022-10-15T06:30:13;21.20;;;12.25;;
25191;SDS011;13143;50.924;5.320;2022-10-15T06:32:39;21.48;;;11.73;;
25191;SDS011;13143;50.924;5.320;2022-10-15T06:35:10;18.20;;;11.90;;
25191;SDS011;13143;50.924;5.320;2022-10-15T06:37:36;17.55;;;11.25;;
25191;SDS011;13143;50.924;5.320;2022-10-15T06:40:02;16.73;;;10.38;;
25191;SDS011;13143;50.924;5.320;2022-10-15T06:42:27;17.05;;;10.98;;
25191;SDS011;13143;50.924;5.320;2022-10-15T06:44:53;21.05;;;11.63;;
25191;SDS011;13143;50.924;5.320;2022-10-15T06:47:19;19.25;;;11.25;;
25191;SDS011;13143;50.924;5.320;2022-10-15T06:49:44;16.80;;;10.52;;
25191;SDS011;13143;50.924;5.320;2022-10-15T06:52:10;16.73;;;10.88;;
25191;SDS011;13143;50.924;5.320;2022-10-15T06:54:35;19.02;;;10.82;;
25191;SDS011;13143;50.924;5.320;2022-10-15T06:57:01;16.52;;;10.23;;
25191;SDS011;13143;50.924;5.320;2022-10-15T06:59:27;17.13;;;10.18;;
25191;SDS011;13143;50.924;5.320;2022-10-15T07:01:52;19.02;;;9.93;;
25191;SDS011;13143;50.924;5.320;2022-10-15T07:04:18;15.82;;;9.85;;
25191;SDS011;13143;50.924;5.320;2022-10-15T07:06:43;14.48;;;9.23;;
25191;SDS011;13143;50.924;5.320;2022-10-15T07:09:09;15.60;;;9.73;;
25191;SDS011;13143;50.924;5.320;2022-10-15T07:11:34;13.23;;;9.35;;
25191;SDS011;13143;50.924;5.320;2022-10-15T07:14:00;13.68;;;9.43;;
25191;SDS011;13143;50.924;5.320;2022-10-15T07:16:26;15.63;;;8.32;;
25191;SDS011;13143;50.924;5.320;2022-10-15T07:18:52;13.40;;;7.88;;
25191;SDS011;13143;50.924;5.320;2022-10-15T07:21:17;13.88;;;8.57;;
25191;SDS011;13143;50.924;5.320;2022-10-15T07:23:43;14.02;;;7.82;;
25191;SDS011;13143;50.924;5.320;2022-10-15T07:26:08;12.05;;;8.77;;
25191;SDS011;13143;50.924;5.320;2022-10-15T07:28:34;13.73;;;7.72;;
25191;SDS011;13143;50.924;5.320;2022-10-15T07:31:04;14.40;;;8.02;;
25191;SDS011;13143;50.924;5.320;2022-10-15T07:33:31;11.80;;;7.35;;
25191;SDS011;13143;50.924;5.320;2022-10-15T07:36:07;12.05;;;7.75;;
25191;SDS011;13143;50.924;5.320;2022-10-15T07:38:33;15.13;;;7.90;;
25191;SDS011;13143;50.924;5.320;2022-10-15T07:41:00;10.75;;;7.35;;
25191;SDS011;13143;50.924;5.320;2022-10-15T07:43:27;10.98;;;6.53;;
25191;SDS011;13143;50.924;5.320;2022-10-15T07:45:53;12.52;;;7.15;;
25191;SDS011;13143;50.924;5.320;2022-10-15T07:48:18;14.68;;;7.57;;
25191;SDS011;13143;50.924;5.320;2022-10-15T07:50:44;15.02;;;8.10;;
25191;SDS011;13143;50.924;5.320;2022-10-15T07:53:10;11.80;;;7.18;;
25191;SDS011;13143;50.924;5.320;2022-10-15T07:55:36;14.20;;;7.45;;
25191;SDS011;13143;50.924;5.320;2022-10-15T07:58:02;13.52;;;7.07;;
25191;SDS011;13143;50.924;5.320;2022-10-15T08:00:30;12.32;;;6.97;;
25191;SDS011;13143;50.924;5.320;2022-10-15T08:02:57;8.07;;;5.85;;
25191;SDS011;13143;50.924;5.320;2022-10-15T08:05:22;16.75;;;7.07;;
25191;SDS011;13143;50.924;5.320;2022-10-15T08:07:48;8.43;;;5.90;;
25191;SDS011;13143;50.924;5.320;2022-10-15T08:10:14;8.82;;;6.00;;
25191;SDS011;13143;50.924;5.320;2022-10-15T08:12:39;13.85;;;6.43;;
25191;SDS011;13143;50.924;5.320;2022-10-15T08:15:05;10.93;;;5.68;;
25191;SDS011;13143;50.924;5.320;2022-10-15T08:17:31;6.07;;;5.15;;
25191;SDS011;13143;50.924;5.320;2022-10-15T08:19:57;8.13;;;5.10;;
25191;SDS011;13143;50.924;5.320;2022-10-15T08:22:23;7.68;;;4.68;;
25191;SDS011;13143;50.924;5.320;2022-10-15T08:24:48;4.85;;;4.35;;
25191;SDS011;13143;50.924;5.320;2022-10-15T08:27:14;5.72;;;3.22;;
25191;SDS011;13143;50.924;5.320;2022-10-15T08:29:40;4.30;;;3.30;;
25191;SDS011;13143;50.924;5.320;2022-10-15T08:32:05;4.53;;;3.45;;
25191;SDS011;13143;50.924;5.320;2022-10-15T08:34:31;3.55;;;3.22;;
25191;SDS011;13143;50.924;5.320;2022-10-15T08:36:57;5.20;;;3.50;;
25191;SDS011;13143;50.924;5.320;2022-10-15T08:39:22;2.83;;;2.53;;
25191;SDS011;13143;50.924;5.320;2022-10-15T08:41:52;4.22;;;2.72;;
25191;SDS011;13143;50.924;5.320;2022-10-15T08:44:24;2.77;;;2.50;;
25191;SDS011;13143;50.924;5.320;2022-10-15T08:46:57;4.13;;;2.50;;
25191;SDS011;13143;50.924;5.320;2022-10-15T08:49:34;6.15;;;2.60;;
25191;SDS011;13143;50.924;5.320;2022-10-15T08:52:13;4.25;;;2.33;;
25191;SDS011;13143;50.924;5.320;2022-10-15T08:54:45;3.72;;;2.10;;
25191;SDS011;13143;50.924;5.320;2022-10-15T08:57:25;2.53;;;2.17;;
25191;SDS011;13143;50.924;5.320;2022-10-15T09:00:17;3.67;;;1.73;;
25191;SDS011;13143;50.924;5.320;2022-10-15T09:10:37;1.58;;;1.30;;
25191;SDS011;13143;50.924;5.320;2022-10-15T09:13:17;3.33;;;1.25;;
25191;SDS011;13143;50.924;5.320;2022-10-15T09:15:50;1.73;;;1.20;;
25191;SDS011;13143;50.924;5.320;2022-10-15T09:18:22;3.10;;;1.50;;
25191;SDS011;13143;50.924;5.320;2022-10-15T09:20:49;2.97;;;0.98;;
25191;SDS011;13143;50.924;5.320;2022-10-15T09:23:18;1.02;;;0.93;;
25191;SDS011;13143;50.924;5.320;2022-10-15T09:25:58;1.40;;;0.80;;
25191;SDS011;13143;50.924;5.320;2022-10-15T09:28:26;2.00;;;1.35;;
25191;SDS011;13143;50.924;5.320;2022-10-15T09:31:02;4.30;;;1.08;;
25191;SDS011;13143;50.924;5.320;2022-10-15T09:44:20;1.27;;;0.60;;
25191;SDS011;13143;50.924;5.320;2022-10-15T09:46:49;0.80;;;0.40;;
25191;SDS011;13143;50.924;5.320;2022-10-15T09:49:16;0.55;;;0.40;;
25191;SDS011;13143;50.924;5.320;2022-10-15T09:57:32;1.40;;;0.40;;
25191;SDS011;13143;50.924;5.320;2022-10-15T10:00:00;2.45;;;0.35;;
25191;SDS011;13143;50.924;5.320;2022-10-15T10:02:31;4.28;;;0.30;;
25191;SDS011;13143;50.924;5.320;2022-10-15T10:04:57;0.30;;;0.30;;
25191;SDS011;13143;50.924;5.320;2022-10-15T10:10:59;0.30;;;0.30;;
25191;SDS011;13143;50.924;5.320;2022-10-15T10:13:27;0.30;;;0.30;;
25191;SDS011;13143;50.924;5.320;2022-10-15T10:15:54;1.23;;;0.50;;
25191;SDS011;13143;50.924;5.320;2022-10-15T10:18:25;1.67;;;0.40;;
25191;SDS011;13143;50.924;5.320;2022-10-15T10:20:55;2.83;;;0.50;;
25191;SDS011;13143;50.924;5.320;2022-10-15T10:23:30;2.53;;;0.75;;
25191;SDS011;13143;50.924;5.320;2022-10-15T10:26:04;0.90;;;0.43;;
25191;SDS011;13143;50.924;5.320;2022-10-15T10:31:16;0.75;;;0.28;;
25191;SDS011;13143;50.924;5.320;2022-10-15T10:33:50;1.95;;;0.77;;
25191;SDS011;13143;50.924;5.320;2022-10-15T10:36:20;2.20;;;0.60;;
25191;SDS011;13143;50.924;5.320;2022-10-15T10:41:51;3.75;;;1.90;;
25191;SDS011;13143;50.924;5.320;2022-10-15T10:44:26;3.47;;;0.77;;
25191;SDS011;13143;50.924;5.320;2022-10-15T10:47:00;1.35;;;0.95;;
25191;SDS011;13143;50.924;5.320;2022-10-15T10:49:35;0.75;;;0.60;;
25191;SDS011;13143;50.924;5.320;2022-10-15T10:52:14;0.45;;;0.45;;
25191;SDS011;13143;50.924;5.320;2022-10-15T10:54:45;1.13;;;0.63;;
25191;SDS011;13143;50.924;5.320;2022-10-15T10:57:13;1.13;;;0.43;;
25191;SDS011;13143;50.924;5.320;2022-10-15T10:59:47;1.55;;;0.80;;
25191;SDS011;13143;50.924;5.320;2022-10-15T11:02:15;0.50;;;0.43;;
25191;SDS011;13143;50.924;5.320;2022-10-15T11:04:41;0.95;;;0.82;;
25191;SDS011;13143;50.924;5.320;2022-10-15T11:15:35;1.92;;;0.75;;
25191;SDS011;13143;50.924;5.320;2022-10-15T11:18:26;2.03;;;0.60;;
25191;SDS011;13143;50.924;5.320;2022-10-15T11:33:05;0.77;;;0.75;;
25191;SDS011;13143;50.924;5.320;2022-10-15T11:41:58;2.38;;;1.00;;
25191;SDS011;13143;50.924;5.320;2022-10-15T11:47:45;1.67;;;0.80;;
25191;SDS011;13143;50.924;5.320;2022-10-15T11:56:21;3.45;;;1.10;;
25191;SDS011;13143;50.924;5.320;2022-10-15T11:58:56;1.30;;;1.10;;
25191;SDS011;13143;50.924;5.320;2022-10-15T12:01:32;1.42;;;1.20;;
25191;SDS011;13143;50.924;5.320;2022-10-15T12:04:04;2.13;;;1.00;;
25191;SDS011;13143;50.924;5.320;2022-10-15T12:06:38;1.27;;;1.13;;
25191;SDS011;13143;50.924;5.320;2022-10-15T12:09:06;0.85;;;0.80;;
25191;SDS011;13143;50.924;5.320;2022-10-15T12:19:18;1.20;;;1.10;;
25191;SDS011;13143;50.924;5.320;2022-10-15T12:29:47;6.32;;;1.40;;
25191;SDS011;13143;50.924;5.320;2022-10-15T12:32:20;2.90;;;1.80;;
25191;SDS011;13143;50.924;5.320;2022-10-15T12:34:56;4.00;;;1.40;;
25191;SDS011;13143;50.924;5.320;2022-10-15T12:37:24;1.42;;;1.33;;
25191;SDS011;13143;50.924;5.320;2022-10-15T12:40:01;5.57;;;2.60;;
25191;SDS011;13143;50.924;5.320;2022-10-15T12:45:29;5.82;;;1.83;;
25191;SDS011;13143;50.924;5.320;2022-10-15T12:50:30;6.70;;;1.30;;
25191;SDS011;13143;50.924;5.320;2022-10-15T12:53:04;3.72;;;1.15;;
25191;SDS011;13143;50.924;5.320;2022-10-15T12:58:55;5.15;;;1.60;;
25191;SDS011;13143;50.924;5.320;2022-10-15T13:11:32;4.60;;;1.30;;
25191;SDS011;13143;50.924;5.320;2022-10-15T13:16:36;3.65;;;1.27;;
25191;SDS011;13143;50.924;5.320;2022-10-15T13:19:15;1.85;;;1.20;;
25191;SDS011;13143;50.924;5.320;2022-10-15T13:21:47;4.85;;;1.30;;
25191;SDS011;13143;50.924;5.320;2022-10-15T13:24:15;1.73;;;1.48;;
25191;SDS011;13143;50.924;5.320;2022-10-15T13:26:43;3.05;;;1.50;;
25191;SDS011;13143;50.924;5.320;2022-10-15T13:29:16;4.07;;;1.52;;
25191;SDS011;13143;50.924;5.320;2022-10-15T13:31:43;3.22;;;1.52;;
25191;SDS011;13143;50.924;5.320;2022-10-15T13:34:12;4.32;;;1.70;;
25191;SDS011;13143;50.924;5.320;2022-10-15T13:36:44;8.10;;;1.90;;
25191;SDS011;13143;50.924;5.320;2022-10-15T13:39:27;5.05;;;1.27;;
25191;SDS011;13143;50.924;5.320;2022-10-15T13:47:11;2.83;;;1.45;;
25191;SDS011;13143;50.924;5.320;2022-10-15T13:49:48;3.17;;;1.48;;
25191;SDS011;13143;50.924;5.320;2022-10-15T13:52:14;8.82;;;3.20;;
25191;SDS011;13143;50.924;5.320;2022-10-15T13:54:40;2.83;;;1.77;;
25191;SDS011;13143;50.924;5.320;2022-10-15T13:57:09;4.80;;;1.90;;
25191;SDS011;13143;50.924;5.320;2022-10-15T13:59:42;3.40;;;1.92;;
25191;SDS011;13143;50.924;5.320;2022-10-15T14:02:12;1.85;;;1.00;;
25191;SDS011;13143;50.924;5.320;2022-10-15T14:04:38;5.63;;;1.00;;
25191;SDS011;13143;50.924;5.320;2022-10-15T14:07:20;2.95;;;1.08;;
25191;SDS011;13143;50.924;5.320;2022-10-15T14:09:50;4.30;;;1.02;;
25191;SDS011;13143;50.924;5.320;2022-10-15T14:12:16;2.35;;;1.20;;
25191;SDS011;13143;50.924;5.320;2022-10-15T14:14:43;1.92;;;0.93;;
25191;SDS011;13143;50.924;5.320;2022-10-15T14:19:50;1.73;;;0.90;;
25191;SDS011;13143;50.924;5.320;2022-10-15T14:22:21;2.55;;;1.02;;
25191;SDS011;13143;50.924;5.320;2022-10-15T14:24:50;2.03;;;0.70;;
25191;SDS011;13143;50.924;5.320;2022-10-15T14:27:19;3.03;;;1.15;;
25191;SDS011;13143;50.924;5.320;2022-10-15T14:29:47;2.22;;;0.75;;
25191;SDS011;13143;50.924;5.320;2022-10-15T14:32:23;2.78;;;0.80;;
25191;SDS011;13143;50.924;5.320;2022-10-15T14:35:01;5.57;;;1.00;;
25191;SDS011;13143;50.924;5.320;2022-10-15T14:43:17;1.77;;;1.00;;
25191;SDS011;13143;50.924;5.320;2022-10-15T14:45:34;4.30;;;1.40;;
25191;SDS011;13143;50.924;5.320;2022-10-15T14:48:07;6.93;;;1.20;;
25191;SDS011;13143;50.924;5.320;2022-10-15T14:50:40;4.35;;;1.10;;
25191;SDS011;13143;50.924;5.320;2022-10-15T14:53:09;5.18;;;1.05;;
25191;SDS011;13143;50.924;5.320;2022-10-15T14:55:41;5.28;;;1.27;;
25191;SDS011;13143;50.924;5.320;2022-10-15T14:58:15;2.20;;;0.90;;
25191;SDS011;13143;50.924;5.320;2022-10-15T15:00:43;5.88;;;0.98;;
25191;SDS011;13143;50.924;5.320;2022-10-15T15:03:14;2.47;;;1.30;;
25191;SDS011;13143;50.924;5.320;2022-10-15T15:05:50;6.28;;;1.67;;
25191;SDS011;13143;50.924;5.320;2022-10-15T15:08:20;3.15;;;1.40;;
25191;SDS011;13143;50.924;5.320;2022-10-15T15:10:46;4.03;;;1.27;;
25191;SDS011;13143;50.924;5.320;2022-10-15T15:13:19;4.90;;;2.10;;
25191;SDS011;13143;50.924;5.320;2022-10-15T15:18:12;4.93;;;1.05;;
25191;SDS011;13143;50.924;5.320;2022-10-15T15:20:39;4.38;;;1.48;;
25191;SDS011;13143;50.924;5.320;2022-10-15T15:23:05;4.13;;;0.90;;
25191;SDS011;13143;50.924;5.320;2022-10-15T15:25:33;4.53;;;1.38;;
25191;SDS011;13143;50.924;5.320;2022-10-15T15:28:01;3.00;;;1.15;;
25191;SDS011;13143;50.924;5.320;2022-10-15T15:30:29;3.40;;;0.90;;
25191;SDS011;13143;50.924;5.320;2022-10-15T15:32:56;3.38;;;0.98;;
25191;SDS011;13143;50.924;5.320;2022-10-15T15:35:36;6.93;;;1.08;;
25191;SDS011;13143;50.924;5.320;2022-10-15T15:38:08;2.03;;;0.90;;
25191;SDS011;13143;50.924;5.320;2022-10-15T15:40:35;4.35;;;1.17;;
25191;SDS011;13143;50.924;5.320;2022-10-15T15:43:01;4.05;;;1.27;;
25191;SDS011;13143;50.924;5.320;2022-10-15T15:45:27;9.02;;;1.45;;
25191;SDS011;13143;50.924;5.320;2022-10-15T15:47:53;5.53;;;1.60;;
25191;SDS011;13143;50.924;5.320;2022-10-15T15:50:22;4.85;;;1.00;;
25191;SDS011;13143;50.924;5.320;2022-10-15T15:52:48;2.17;;;1.17;;
25191;SDS011;13143;50.924;5.320;2022-10-15T15:55:14;5.13;;;1.27;;
25191;SDS011;13143;50.924;5.320;2022-10-15T15:57:40;6.30;;;1.50;;
25191;SDS011;13143;50.924;5.320;2022-10-15T16:00:06;5.10;;;1.52;;
25191;SDS011;13143;50.924;5.320;2022-10-15T16:02:33;6.25;;;1.50;;
25191;SDS011;13143;50.924;5.320;2022-10-15T16:04:59;7.53;;;1.85;;
25191;SDS011;13143;50.924;5.320;2022-10-15T16:07:28;6.90;;;1.70;;
25191;SDS011;13143;50.924;5.320;2022-10-15T16:09:54;3.08;;;1.55;;
25191;SDS011;13143;50.924;5.320;2022-10-15T16:12:20;6.07;;;2.10;;
25191;SDS011;13143;50.924;5.320;2022-10-15T16:14:45;7.15;;;1.90;;
25191;SDS011;13143;50.924;5.320;2022-10-15T16:17:11;6.57;;;1.40;;
25191;SDS011;13143;50.924;5.320;2022-10-15T16:19:36;7.18;;;1.58;;
25191;SDS011;13143;50.924;5.320;2022-10-15T16:22:02;2.25;;;1.60;;
25191;SDS011;13143;50.924;5.320;2022-10-15T16:24:28;3.00;;;1.58;;
25191;SDS011;13143;50.924;5.320;2022-10-15T16:26:54;5.78;;;1.63;;
25191;SDS011;13143;50.924;5.320;2022-10-15T16:29:19;8.93;;;2.10;;
25191;SDS011;13143;50.924;5.320;2022-10-15T16:31:45;3.90;;;1.90;;
25191;SDS011;13143;50.924;5.320;2022-10-15T16:34:10;6.03;;;1.80;;
25191;SDS011;13143;50.924;5.320;2022-10-15T16:36:36;6.25;;;1.73;;
25191;SDS011;13143;50.924;5.320;2022-10-15T16:39:02;4.45;;;1.52;;
25191;SDS011;13143;50.924;5.320;2022-10-15T16:41:28;5.90;;;1.80;;
25191;SDS011;13143;50.924;5.320;2022-10-15T16:43:54;7.57;;;1.80;;
25191;SDS011;13143;50.924;5.320;2022-10-15T16:46:20;4.47;;;1.58;;
25191;SDS011;13143;50.924;5.320;2022-10-15T16:48:50;5.00;;;1.98;;
25191;SDS011;13143;50.924;5.320;2022-10-15T16:51:16;6.60;;;1.58;;
25191;SDS011;13143;50.924;5.320;2022-10-15T16:53:43;6.53;;;1.50;;
25191;SDS011;13143;50.924;5.320;2022-10-15T16:56:11;9.70;;;1.70;;
25191;SDS011;13143;50.924;5.320;2022-10-15T16:58:39;9.57;;;1.65;;
25191;SDS011;13143;50.924;5.320;2022-10-15T17:01:06;4.68;;;1.42;;
25191;SDS011;13143;50.924;5.320;2022-10-15T17:03:35;5.90;;;1.75;;
25191;SDS011;13143;50.924;5.320;2022-10-15T17:06:03;8.77;;;1.92;;
25191;SDS011;13143;50.924;5.320;2022-10-15T17:11:02;6.63;;;2.15;;
25191;SDS011;13143;50.924;5.320;2022-10-15T17:13:28;9.10;;;2.17;;